地図

経路データ

SID SEASON NUMBER BASIN SUBBASIN NAME ISO_TIME NATURE LAT LON WMO_WIND WMO_PRES WMO_AGENCY TRACK_TYPE DIST2LAND LANDFALL IFLAG USA_AGENCY USA_ATCF_ID USA_LAT USA_LON USA_RECORD USA_STATUS USA_WIND USA_PRES USA_SSHS USA_R34_NE USA_R34_SE USA_R34_SW USA_R34_NW USA_R50_NE USA_R50_SE USA_R50_SW USA_R50_NW USA_R64_NE USA_R64_SE USA_R64_SW USA_R64_NW USA_POCI USA_ROCI USA_RMW USA_EYE TOKYO_LAT TOKYO_LON TOKYO_GRADE TOKYO_WIND TOKYO_PRES TOKYO_R50_DIR TOKYO_R50_LONG TOKYO_R50_SHORT TOKYO_R30_DIR TOKYO_R30_LONG TOKYO_R30_SHORT TOKYO_LAND CMA_LAT CMA_LON CMA_CAT CMA_WIND CMA_PRES HKO_LAT HKO_LON HKO_CAT HKO_WIND HKO_PRES NEWDELHI_LAT NEWDELHI_LON NEWDELHI_GRADE NEWDELHI_WIND NEWDELHI_PRES NEWDELHI_CI NEWDELHI_DP NEWDELHI_POCI REUNION_LAT REUNION_LON REUNION_TYPE REUNION_WIND REUNION_PRES REUNION_TNUM REUNION_CI REUNION_RMW REUNION_R34_NE REUNION_R34_SE REUNION_R34_SW REUNION_R34_NW REUNION_R50_NE REUNION_R50_SE REUNION_R50_SW REUNION_R50_NW REUNION_R64_NE REUNION_R64_SE REUNION_R64_SW REUNION_R64_NW BOM_LAT BOM_LON BOM_TYPE BOM_WIND BOM_PRES BOM_TNUM BOM_CI BOM_RMW BOM_R34_NE BOM_R34_SE BOM_R34_SW BOM_R34_NW BOM_R50_NE BOM_R50_SE BOM_R50_SW BOM_R50_NW BOM_R64_NE BOM_R64_SE BOM_R64_SW BOM_R64_NW BOM_ROCI BOM_POCI BOM_EYE BOM_POS_METHOD BOM_PRES_METHOD NADI_LAT NADI_LON NADI_CAT NADI_WIND NADI_PRES WELLINGTON_LAT WELLINGTON_LON WELLINGTON_WIND WELLINGTON_PRES DS824_LAT DS824_LON DS824_STAGE DS824_WIND DS824_PRES TD9636_LAT TD9636_LON TD9636_STAGE TD9636_WIND TD9636_PRES TD9635_LAT TD9635_LON TD9635_WIND TD9635_PRES TD9635_ROCI NEUMANN_LAT NEUMANN_LON NEUMANN_CLASS NEUMANN_WIND NEUMANN_PRES MLC_LAT MLC_LON MLC_CLASS MLC_WIND MLC_PRES USA_GUST BOM_GUST BOM_GUST_PER REUNION_GUST REUNION_GUST_PER USA_SEAHGT USA_SEARAD_NE USA_SEARAD_SE USA_SEARAD_SW USA_SEARAD_NW STORM_SPEED STORM_DIR
1889228N21089 1889 14 NI BB NOT_NAMED 1889-08-16 00:00:00 TS 20.5000 88.5000 main 123 100 _________O____ -1 20.5000 88.5000 TC 64 3 7
1889228N21089 1889 14 NI BB NOT_NAMED 1889-08-16 03:00:00 TS 20.6667 88.5050 main 100 78 _________PO___ -1 20.7500 88.5075 TC 64 20.5000 88.5000 4 4 356
1889228N21089 1889 14 NI BB NOT_NAMED 1889-08-16 06:00:00 TS 20.9026 88.4915 main 78 55 _________OP___ -1 21.0000 88.5000 TC 64 20.7565 88.4786 4 5 354
1889228N21089 1889 14 NI BB NOT_NAMED 1889-08-16 09:00:00 TS 21.1473 88.4610 main 55 22 _________PP___ -1 21.2500 88.4650 TC 64 21.0105 88.4558 4 5 352
1889228N21089 1889 14 NI BB NOT_NAMED 1889-08-16 12:00:00 TS 21.3796 88.4150 main 22 0 _________OP___ -1 21.5000 88.4000 TC 64 21.2592 88.4300 4 5 348
1889228N21089 1889 14 NI BB NOT_NAMED 1889-08-16 15:00:00 TS 21.6250 88.3612 main 0 0 _________PO___ -1 21.7500 88.3224 TC 56 21.5000 88.4000 4 5 346
1889228N21089 1889 14 NI BB NOT_NAMED 1889-08-16 18:00:00 TS 21.8665 88.2789 main 0 0 _________OP___ -1 22.0000 88.2000 TC 49 21.7329 88.3579 4 5 339
1889228N21089 1889 14 NI BB NOT_NAMED 1889-08-16 21:00:00 TS 22.0941 88.1687 main 0 0 _________PP___ -1 22.2197 88.0669 TC 41 21.9686 88.2705 4 6 328
1889228N21089 1889 14 NI BB NOT_NAMED 1889-08-17 00:00:00 TS 22.3600 87.9490 main 0 0 _________OP___ -1 22.5000 87.8000 TC 34 22.2200 88.0979 4 8 318
1889228N21089 1889 14 NI BB NOT_NAMED 1889-08-17 03:00:00 TS 22.7250 87.5591 main 0 0 _________PO___ -1 22.9501 87.3181 TC 33 22.5000 87.8000 2 11 312
1889228N21089 1889 14 NI BB NOT_NAMED 1889-08-17 06:00:00 TS 23.1231 87.0215 main 0 0 _________OP___ -1 23.4000 86.7000 TC 32 22.8463 87.3430 2 13 305
1889228N21089 1889 14 NI BB NOT_NAMED 1889-08-17 09:00:00 TS 23.4476 86.4269 main 0 0 _________PP___ -1 23.6795 86.0943 TC 31 23.2158 86.7595 2 13 298
1889228N21089 1889 14 NI BB NOT_NAMED 1889-08-17 12:00:00 TS 23.7386 85.7480 main 0 0 _________OP___ -1 23.9000 85.4000 TC 30 23.5773 86.0960 2 15 294
1889228N21089 1889 14 NI BB NOT_NAMED 1889-08-17 15:00:00 TS 24.0329 84.9639 main 0 0 _________PO___ -1 24.1657 84.5279 TC 30 23.9000 85.4000 1 15 291
1889228N21089 1889 14 NI BB NOT_NAMED 1889-08-17 18:00:00 TS 24.2888 84.1687 main 0 0 _________OP___ -1 24.4000 83.7000 TC 30 24.1775 84.6373 1 14 289
1889228N21089 1889 14 NI BB NOT_NAMED 1889-08-17 21:00:00 TS 24.4975 83.4715 main 0 0 _________PP___ -1 24.5871 83.0723 TC 30 24.4078 83.8707 1 12 288
1889228N21089 1889 14 NI BB NOT_NAMED 1889-08-18 00:00:00 TS 24.6419 82.9468 main 0 0 _________OP___ -1 24.7000 82.7000 TC 30 24.5838 83.1936 1 8 286
1889228N21089 1889 14 NI BB NOT_NAMED 1889-08-18 03:00:00 TS 24.7111 82.6624 main 0 0 _________PO___ -1 24.7222 82.6248 TC 30 24.7000 82.7000 1 3 285
1889228N21089 1889 14 NI BB NOT_NAMED 1889-08-18 06:00:00 TS 24.7278 82.6024 main 0 0 _________OP___ -1 24.7000 82.7000 TC 30 24.7556 82.5047 1 1 289
1889228N21089 1889 14 NI BB NOT_NAMED 1889-08-18 09:00:00 TS 24.7290 82.5981 main 0 0 _________PP___ -1 24.7000 82.7000 TC 30 24.7580 82.4962 1 0 108
1889228N21089 1889 14 NI BB NOT_NAMED 1889-08-18 12:00:00 TS 24.7157 82.6448 main 0 0 _________OP___ -1 24.7000 82.7000 TC 30 24.7315 82.5896 1 1 107
1889228N21089 1889 14 NI BB NOT_NAMED 1889-08-18 15:00:00 TS 24.7000 82.7000 main 0 0 _________PO___ -1 24.7000 82.7000 TC 30 24.7000 82.7000 1 1 107
1889228N21089 1889 14 NI BB NOT_NAMED 1889-08-18 18:00:00 TS 24.6895 82.7425 main 0 0 _________OP___ -1 24.7000 82.7000 TC 30 24.6791 82.7849 1 1 106
1889228N21089 1889 14 NI BB NOT_NAMED 1889-08-18 21:00:00 TS 24.6731 82.8083 main 0 0 _________PP___ -1 24.6848 82.7599 TC 30 24.6613 82.8568 1 0 102
1889228N21089 1889 14 NI BB NOT_NAMED 1889-08-19 00:00:00 TS 24.6815 82.7751 main 0 0 _________OP___ -1 24.7000 82.7000 TC 30 24.6629 82.8502 1 2 285
1889228N21089 1889 14 NI BB NOT_NAMED 1889-08-19 03:00:00 TS 24.7387 82.5487 main 0 0 _________PO___ -1 24.7773 82.3974 TC 30 24.7000 82.7000 1 6 285
1889228N21089 1889 14 NI BB NOT_NAMED 1889-08-19 06:00:00 TS 24.8451 82.1112 main 0 0 _________OP___ -1 24.9000 81.9000 TC 30 24.7901 82.3224 1 10 285
1889228N21089 1889 14 NI BB NOT_NAMED 1889-08-19 09:00:00 TS 24.9822 81.5330 main 0 0 _________PP___ -1 25.0504 81.2652 TC 30 24.9141 81.8007 1 11 284
1889228N21089 1889 14 NI BB NOT_NAMED 1889-08-19 12:00:00 TS 25.1279 80.9018 main 0 0 _________OP___ -1 25.2000 80.6000 TC 30 25.0558 81.2036 1 11 284
1889228N21089 1889 14 NI BB NOT_NAMED 1889-08-19 15:00:00 TS 25.2498 80.3386 main 0 0 _________PO___ -1 25.2996 80.0772 TC 30 25.2000 80.6000 1 10 284
1889228N21089 1889 14 NI BB NOT_NAMED 1889-08-19 18:00:00 TS 25.3667 79.8222 main 0 0 _________OP___ -1 25.4000 79.6000 TC 30 25.3334 80.0443 1 10 285
1889228N21089 1889 14 NI BB NOT_NAMED 1889-08-19 21:00:00 TS 25.5116 79.2791 main 0 0 _________PP___ -1 25.5577 79.0553 TC 30 25.4656 79.5029 1 10 287
1889228N21089 1889 14 NI BB NOT_NAMED 1889-08-20 00:00:00 TS 25.6449 78.8050 main 0 0 _________OP___ -1 25.7000 78.6000 TC 30 25.5898 79.0100 1 8 287
1889228N21089 1889 14 NI BB NOT_NAMED 1889-08-20 03:00:00 TS 25.7286 78.4774 main 0 0 _________PO___ -1 25.7572 78.3547 TC 30 25.7000 78.6000 1 5 287
1889228N21089 1889 14 NI BB NOT_NAMED 1889-08-20 06:00:00 TS 25.7921 78.2545 main 0 0 _________OP___ -1 25.8000 78.2000 TC 30 25.7843 78.3091 1 4 291
1889228N21089 1889 14 NI BB NOT_NAMED 1889-08-20 09:00:00 TS 25.8744 78.0509 main 0 0 _________PP___ -1 25.8925 78.0000 TC 30 25.8563 78.1018 1 4 296
1889228N21089 1889 14 NI AS NOT_NAMED 1889-08-20 12:00:00 TS 25.9626 77.8718 main 0 0 _________OP___ -1 26.0000 77.8000 TC 30 25.9252 77.9436 1 4 299
1889228N21089 1889 14 NI AS NOT_NAMED 1889-08-20 15:00:00 TS 26.0500 77.6962 main 0 0 _________PO___ -1 26.1000 77.5925 TC 30 26.0000 77.8000 1 3 300
1889228N21089 1889 14 NI AS NOT_NAMED 1889-08-20 18:00:00 TS 26.1356 77.5388 main 0 0 _________OP___ -1 26.2000 77.4000 TC 30 26.0874 77.6429 1 3 302
1889228N21089 1889 14 NI AS NOT_NAMED 1889-08-20 21:00:00 TS 26.2314 77.3784 main 0 0 _________PP___ -1 26.3000 77.2400 TC 30 26.1857 77.4706 1 3 304
1889228N21089 1889 14 NI AS NOT_NAMED 1889-08-21 00:00:00 TS 26.3274 77.2253 main 0 0 _________OP___ -1 26.4000 77.1000 TC 30 26.2911 77.2880 1 3 304
1889228N21089 1889 14 NI AS NOT_NAMED 1889-08-21 03:00:00 NR 26.4000 77.1000 main 0 __________O___ -1 TC 26.4000 77.1000 1 3 304

IBTrACS Databaseについて

本データベースは、米国NOAAが公開する1842年以降の世界の熱帯低気圧のベストトラックデータアーカイブInternational Best Track Archive for Climate Stewardship (IBTrACS)を、ウェブで閲覧しやすい形式に変換したものです。

最終更新日:2021-11-26